Edmond, Oklahoma
Current Conditions -  °F | °C
As of 6:53 PM on Wednesday 22 Oct 2014 (Local Time) from KPWA Reporting Station
Overcast Overcast  
Wind Chill: 72°   Ceiling: 10000
Heat Index: 72°   Visibility: 8mi
Dew Point: 59°   Wind: 9mph
Humidity: 64%   Direction: 180°S
Pressure: 30.09"   Gusts: NA
Location:  35.65°N, 97.48°W
Report Text: KPWA 222353Z 18008KT 8SM FEW060 OVC100 22/15 A3009 RMK AO2 SLP180 T02220150 10261 20222 53003
Loading
Personal Weather Stations






























Interactive Weather Map
Tropical Storm Tracking
New forecast layout! Learn more

10-Day Weather Forecast

Advertisements
Track Severe Weather on mobile